createdAt,value
2022-10-19T00:00:49.185Z,18.51
2022-10-19T00:03:20.710Z,18.49
2022-10-19T00:05:51.828Z,18.49
2022-10-19T00:08:19.103Z,18.51
2022-10-19T00:10:46.375Z,18.52
2022-10-19T00:13:13.599Z,18.48
2022-10-19T00:15:41.639Z,18.48
2022-10-19T00:18:09.547Z,18.48
2022-10-19T00:20:37.497Z,18.49
2022-10-19T00:23:06.264Z,18.50
2022-10-19T00:25:33.571Z,18.51
2022-10-19T00:28:01.289Z,18.52
2022-10-19T00:30:28.679Z,18.54
2022-10-19T00:32:55.984Z,18.53
2022-10-19T00:35:23.300Z,18.54
2022-10-19T00:37:51.821Z,18.55
2022-10-19T00:40:20.486Z,18.53
2022-10-19T00:42:53.733Z,18.49
2022-10-19T00:45:20.970Z,18.44
2022-10-19T00:47:48.444Z,18.43
2022-10-19T00:50:17.322Z,18.41
2022-10-19T00:52:44.810Z,18.37
2022-10-19T00:55:13.384Z,18.34
2022-10-19T00:57:42.138Z,18.32
2022-10-19T01:00:10.616Z,18.32
2022-10-19T01:02:38.184Z,18.34
2022-10-19T01:05:07.618Z,18.37
2022-10-19T01:07:35.285Z,18.39
2022-10-19T01:10:03.471Z,18.40
2022-10-19T01:12:52.590Z,18.34
2022-10-19T01:15:32.517Z,18.34
2022-10-19T01:18:16.359Z,18.32
2022-10-19T01:21:19.337Z,18.26
2022-10-19T01:24:37.125Z,18.24
2022-10-19T01:27:53.201Z,18.23
2022-10-19T01:30:42.242Z,18.22
2022-10-19T01:33:27.686Z,18.21
2022-10-19T01:36:09.242Z,18.21
2022-10-19T01:38:46.046Z,18.24
2022-10-19T01:41:19.954Z,18.25
2022-10-19T01:43:57.126Z,18.26
2022-10-19T01:46:34.128Z,18.24
2022-10-19T01:49:13.700Z,18.26
2022-10-19T01:51:49.445Z,18.27
2022-10-19T01:54:21.380Z,18.30
2022-10-19T01:56:52.057Z,18.31
2022-10-19T01:59:22.551Z,18.30
2022-10-19T02:01:54.895Z,18.29
2022-10-19T02:04:24.810Z,18.30
2022-10-19T02:06:54.943Z,18.32
2022-10-19T02:09:22.910Z,18.31
2022-10-19T02:11:57.272Z,18.28
2022-10-19T02:14:32.643Z,18.27
2022-10-19T02:17:08.073Z,18.24
2022-10-19T02:19:36.398Z,18.24
2022-10-19T02:22:04.132Z,18.24
2022-10-19T02:24:31.555Z,18.23
2022-10-19T02:27:00.665Z,18.22
2022-10-19T02:29:28.530Z,18.20
2022-10-19T02:31:55.944Z,18.19
2022-10-19T02:34:26.298Z,18.16
2022-10-19T02:36:54.302Z,18.16
2022-10-19T02:39:22.301Z,18.12
2022-10-19T02:41:57.306Z,18.10
2022-10-19T02:44:31.197Z,18.11
2022-10-19T02:47:06.526Z,18.10
2022-10-19T02:49:37.781Z,18.13
2022-10-19T02:52:07.477Z,18.14
2022-10-19T02:54:35.158Z,18.18
2022-10-19T02:57:11.906Z,18.22
2022-10-19T02:59:39.123Z,18.23
2022-10-19T03:02:06.382Z,18.28
2022-10-19T03:04:35.483Z,18.33
2022-10-19T03:07:02.938Z,18.36
2022-10-19T03:09:30.291Z,18.37
2022-10-19T03:11:57.541Z,18.38
2022-10-19T03:14:24.777Z,18.39
2022-10-19T03:16:52.108Z,18.38
2022-10-19T03:19:19.365Z,18.36
2022-10-19T03:21:47.950Z,18.36
2022-10-19T03:24:15.324Z,18.32
2022-10-19T03:26:42.584Z,18.32
2022-10-19T03:29:09.953Z,18.30
2022-10-19T03:31:37.238Z,18.30
2022-10-19T03:34:04.748Z,18.30
2022-10-19T03:36:34.853Z,18.29
2022-10-19T03:39:07.938Z,18.28
2022-10-19T03:41:37.280Z,18.32
2022-10-19T03:44:05.434Z,18.32
2022-10-19T03:46:33.832Z,18.33
2022-10-19T03:49:01.282Z,18.33
2022-10-19T03:51:30.753Z,18.36
2022-10-19T03:54:01.718Z,18.36
2022-10-19T03:56:32.327Z,18.38
2022-10-19T03:59:02.314Z,18.39
2022-10-19T04:01:32.896Z,18.40
2022-10-19T04:04:03.684Z,18.43
2022-10-19T04:06:33.778Z,18.42
2022-10-19T04:09:02.149Z,18.41
2022-10-19T04:11:32.265Z,18.39
2022-10-19T04:14:01.204Z,18.41
2022-10-19T04:16:30.401Z,18.41
2022-10-19T04:18:58.562Z,18.41
2022-10-19T04:21:28.796Z,18.40
2022-10-19T04:24:00.131Z,18.43
2022-10-19T04:26:28.059Z,18.46
2022-10-19T04:28:58.033Z,18.47
2022-10-19T04:31:26.039Z,18.49
2022-10-19T04:33:53.386Z,18.46
2022-10-19T04:36:20.783Z,18.47
2022-10-19T04:38:48.422Z,18.47
2022-10-19T04:41:19.667Z,18.45
2022-10-19T04:43:47.959Z,18.47
2022-10-19T04:46:18.805Z,18.50
2022-10-19T04:48:48.164Z,18.55
2022-10-19T04:51:17.258Z,18.58
2022-10-19T04:53:48.014Z,18.59
2022-10-19T04:56:18.474Z,18.60
2022-10-19T04:58:47.199Z,18.63
2022-10-19T05:01:19.623Z,18.66
2022-10-19T05:03:48.277Z,18.70
2022-10-19T05:06:16.267Z,18.75
2022-10-19T05:08:43.537Z,18.78
2022-10-19T05:11:14.788Z,18.82
2022-10-19T05:13:42.686Z,18.86
2022-10-19T05:16:13.984Z,18.89
2022-10-19T05:18:42.858Z,18.92
2022-10-19T05:21:12.495Z,18.94
2022-10-19T05:23:41.821Z,18.96
2022-10-19T05:26:13.654Z,18.98
2022-10-19T05:28:41.335Z,19.00
2022-10-19T05:31:12.253Z,18.99
2022-10-19T05:33:40.735Z,18.94
2022-10-19T05:36:19.322Z,18.93
2022-10-19T05:38:49.996Z,18.93
2022-10-19T05:41:17.917Z,18.96
2022-10-19T05:43:48.089Z,18.98
2022-10-19T05:46:19.692Z,19.01
2022-10-19T05:48:48.001Z,19.02
2022-10-19T05:51:19.135Z,19.04
2022-10-19T05:53:46.913Z,19.04
2022-10-19T05:56:17.397Z,19.02
2022-10-19T05:58:44.988Z,19.03
2022-10-19T06:01:13.056Z,19.05
2022-10-19T06:03:41.054Z,19.08
2022-10-19T06:06:09.648Z,19.09
2022-10-19T06:08:39.205Z,19.10
2022-10-19T06:11:10.247Z,19.11
2022-10-19T06:13:39.281Z,19.11
2022-10-19T06:16:09.157Z,19.12
2022-10-19T06:18:37.144Z,19.10
2022-10-19T06:21:08.046Z,19.08
2022-10-19T06:23:38.419Z,19.09
2022-10-19T06:26:09.237Z,19.09
2022-10-19T06:28:39.708Z,19.11
2022-10-19T06:31:09.390Z,19.13
2022-10-19T06:33:38.814Z,19.16
2022-10-19T06:36:07.292Z,19.18
2022-10-19T06:38:34.684Z,19.18
2022-10-19T06:41:07.104Z,19.20
2022-10-19T06:43:35.753Z,19.21
2022-10-19T06:46:05.656Z,19.24
2022-10-19T06:48:33.078Z,19.29
2022-10-19T06:51:06.268Z,19.32
2022-10-19T06:53:35.248Z,19.34
2022-10-19T06:56:06.905Z,19.36
2022-10-19T06:58:36.501Z,19.41
2022-10-19T07:01:05.624Z,19.44
2022-10-19T07:03:33.208Z,19.45
2022-10-19T07:06:03.548Z,19.49
2022-10-19T07:08:33.495Z,19.52
2022-10-19T07:11:06.626Z,19.54
2022-10-19T07:13:35.386Z,19.56
2022-10-19T07:16:06.761Z,19.57
2022-10-19T07:18:36.302Z,19.61
2022-10-19T07:21:06.628Z,19.63
2022-10-19T07:23:36.385Z,19.68
2022-10-19T07:26:12.300Z,19.70
2022-10-19T07:28:40.851Z,19.70
2022-10-19T07:31:10.894Z,19.70
2022-10-19T07:33:38.514Z,19.73
2022-10-19T07:36:09.357Z,19.76
2022-10-19T07:38:37.639Z,19.81
2022-10-19T07:41:09.893Z,19.86
2022-10-19T07:43:37.292Z,19.89
2022-10-19T07:46:08.588Z,19.93
2022-10-19T07:48:37.076Z,19.97
2022-10-19T07:51:07.495Z,19.99
2022-10-19T07:53:36.279Z,20.00
2022-10-19T07:56:06.026Z,20.00
2022-10-19T07:58:36.368Z,20.00
2022-10-19T08:01:08.062Z,19.88
2022-10-19T08:04:31.785Z,19.85
2022-10-19T08:06:25.092Z,19.87
2022-10-19T08:08:53.896Z,19.94
2022-10-19T08:11:24.382Z,20.01
2022-10-19T08:13:54.152Z,20.08
2022-10-19T08:16:25.518Z,20.11
2022-10-19T08:18:57.360Z,20.17
2022-10-19T08:21:25.287Z,20.23
2022-10-19T08:23:52.555Z,20.27
2022-10-19T08:26:20.486Z,20.31
2022-10-19T08:28:48.539Z,20.35
2022-10-19T08:31:21.217Z,20.40
2022-10-19T08:33:51.020Z,20.43
2022-10-19T08:36:19.816Z,20.46
2022-10-19T08:38:48.949Z,20.47
2022-10-19T08:41:29.303Z,20.49
2022-10-19T08:44:16.550Z,20.54
2022-10-19T08:47:00.510Z,20.59
2022-10-19T08:49:32.154Z,20.64
2022-10-19T08:52:07.214Z,20.64
2022-10-19T08:57:39.783Z,20.68
2022-10-19T09:00:17.660Z,20.80
2022-10-19T09:03:03.607Z,20.87
2022-10-19T09:05:44.880Z,20.98
2022-10-19T09:08:17.571Z,21.12
2022-10-19T09:10:50.829Z,21.27
2022-10-19T09:13:41.599Z,21.40
2022-10-19T09:16:17.278Z,21.58
2022-10-19T09:18:49.710Z,21.73
2022-10-19T09:21:28.155Z,21.91
2022-10-19T09:24:08.177Z,22.01
2022-10-19T09:26:53.251Z,21.97
2022-10-19T09:29:29.749Z,21.95
2022-10-19T09:32:03.657Z,22.04
2022-10-19T09:34:37.792Z,22.27
2022-10-19T09:37:05.197Z,22.46
2022-10-19T09:39:32.941Z,22.55
2022-10-19T09:42:10.493Z,22.83
2022-10-19T09:44:38.546Z,22.97
2022-10-19T09:47:29.283Z,22.92
2022-10-19T09:50:19.108Z,22.82
2022-10-19T09:52:48.116Z,22.81
2022-10-19T09:55:28.711Z,22.73
2022-10-19T09:58:05.922Z,22.51
2022-10-19T10:00:42.803Z,22.29
2022-10-19T10:03:26.272Z,22.20
2022-10-19T10:05:58.835Z,22.29
2022-10-19T10:08:29.965Z,22.46
2022-10-19T10:11:09.179Z,22.67
2022-10-19T10:13:39.832Z,22.80
2022-10-19T10:16:14.301Z,22.82
2022-10-19T10:18:55.300Z,22.81
2022-10-19T10:21:28.777Z,22.80
2022-10-19T10:24:06.747Z,22.64
2022-10-19T10:26:40.560Z,22.55
2022-10-19T10:29:20.281Z,22.43
2022-10-19T10:31:52.196Z,22.33
2022-10-19T10:34:45.589Z,22.19
2022-10-19T10:37:23.108Z,22.13
2022-10-19T10:39:57.673Z,22.05
2022-10-19T10:42:35.128Z,22.01
2022-10-19T10:45:04.935Z,22.00
2022-10-19T10:47:32.808Z,22.00
2022-10-19T10:50:05.894Z,22.10
2022-10-19T10:52:36.692Z,22.03
2022-10-19T10:55:18.032Z,21.92
2022-10-19T10:57:51.907Z,21.99
2022-10-19T11:00:21.745Z,22.45
2022-10-19T11:02:58.758Z,23.60
2022-10-19T11:05:31.644Z,25.01
2022-10-19T11:08:15.135Z,25.91
2022-10-19T11:10:52.717Z,26.00
2022-10-19T11:13:30.985Z,25.91
2022-10-19T11:16:06.617Z,25.99
2022-10-19T11:18:40.541Z,25.81
2022-10-19T11:21:14.010Z,25.58
2022-10-19T11:23:56.915Z,25.13
2022-10-19T11:26:46.028Z,24.55
2022-10-19T11:29:39.754Z,23.92
2022-10-19T11:32:20.579Z,23.45
2022-10-19T11:35:12.264Z,23.00
2022-10-19T11:38:17.401Z,22.68
2022-10-19T11:41:13.219Z,22.33
2022-10-19T11:43:54.523Z,22.06
2022-10-19T11:46:28.682Z,21.87
2022-10-19T11:49:17.949Z,21.68
2022-10-19T11:51:57.517Z,21.55
2022-10-19T11:54:55.893Z,21.35
2022-10-19T11:57:32.776Z,21.25
2022-10-19T12:00:15.418Z,21.13
2022-10-19T12:03:49.745Z,20.94
2022-10-19T12:06:28.761Z,20.93
2022-10-19T12:09:20.274Z,20.89
2022-10-19T12:12:22.587Z,20.91
2022-10-19T12:14:56.196Z,21.01
2022-10-19T12:18:49.329Z,21.00
2022-10-19T12:21:25.518Z,21.01
2022-10-19T12:23:56.910Z,21.07
2022-10-19T12:26:27.882Z,21.05
2022-10-19T14:31:37.277Z,21.38
2022-10-19T14:34:09.180Z,21.31
2022-10-19T14:36:43.774Z,21.24
2022-10-19T14:39:25.779Z,21.15
2022-10-19T14:41:55.693Z,21.16
2022-10-19T14:44:40.728Z,21.04
2022-10-19T14:47:20.419Z,21.01
2022-10-19T14:49:48.442Z,20.98
2022-10-19T14:52:22.948Z,20.89
2022-10-19T14:54:54.754Z,20.75
2022-10-19T14:57:32.142Z,20.64
2022-10-19T15:00:06.138Z,20.61
2022-10-19T15:02:40.014Z,20.56
2022-10-19T15:05:20.265Z,20.49
2022-10-19T15:07:48.258Z,20.49
2022-10-19T15:10:22.515Z,20.43
2022-10-19T15:12:51.626Z,20.42
2022-10-19T15:15:25.583Z,20.38
2022-10-19T15:17:57.279Z,20.35
2022-10-19T15:20:28.758Z,20.21
2022-10-19T15:22:57.597Z,20.16
2022-10-19T15:25:37.043Z,20.14
2022-10-19T15:28:31.101Z,20.17
2022-10-19T15:31:00.740Z,20.22
2022-10-19T15:33:29.562Z,20.21
2022-10-19T15:36:07.771Z,20.14
2022-10-19T15:38:35.670Z,20.07
2022-10-19T15:41:04.897Z,20.01
2022-10-19T15:43:45.664Z,19.93
2022-10-19T15:46:31.905Z,19.87
2022-10-19T15:49:16.831Z,19.89
2022-10-19T15:51:45.793Z,19.82
2022-10-19T15:54:16.931Z,19.78
2022-10-19T15:56:47.092Z,19.71
2022-10-19T15:59:17.312Z,19.67
2022-10-19T16:01:51.371Z,19.67
2022-10-19T16:04:23.427Z,19.69
2022-10-19T16:06:50.524Z,19.68
2022-10-19T16:09:20.844Z,19.66
2022-10-19T16:11:48.655Z,19.66
2022-10-19T16:16:50.305Z,19.65
2022-10-19T16:19:17.329Z,19.66
2022-10-19T16:21:50.164Z,19.64
2022-10-19T16:24:17.522Z,19.57
2022-10-19T16:26:44.510Z,19.54
2022-10-19T16:29:11.426Z,19.55
2022-10-19T16:31:38.638Z,19.54
2022-10-19T16:34:05.570Z,19.56
2022-10-19T16:36:32.538Z,19.56
2022-10-19T16:39:01.388Z,19.56
2022-10-19T16:41:28.390Z,19.56
2022-10-19T16:43:56.213Z,19.55
2022-10-19T16:46:24.284Z,19.53
2022-10-19T16:48:52.072Z,19.51
2022-10-19T16:51:34.941Z,19.45
2022-10-19T16:54:05.815Z,19.47
2022-10-19T16:56:34.883Z,19.45
2022-10-19T16:59:05.972Z,19.42
2022-10-19T17:01:36.957Z,19.41
2022-10-19T17:04:18.966Z,19.34
2022-10-19T17:06:49.926Z,19.30
2022-10-19T17:12:07.627Z,19.19
2022-10-19T17:14:35.100Z,19.16
2022-10-19T17:17:02.261Z,19.13
2022-10-19T17:19:29.344Z,19.12
2022-10-19T17:21:58.892Z,19.10
2022-10-19T17:24:27.210Z,19.08
2022-10-19T17:26:54.435Z,19.05
2022-10-19T17:29:22.978Z,19.04
2022-10-19T17:31:50.627Z,19.04
2022-10-19T17:34:18.150Z,19.04
2022-10-19T17:36:46.483Z,19.03
2022-10-19T17:39:17.745Z,18.99
2022-10-19T17:41:48.451Z,18.94
2022-10-19T17:44:17.466Z,18.88
2022-10-19T17:46:44.725Z,18.82
2022-10-19T17:49:12.413Z,18.79
2022-10-19T17:51:40.840Z,18.74
2022-10-19T17:54:11.908Z,18.68
2022-10-19T17:56:40.326Z,18.61
2022-10-19T17:59:09.025Z,18.54
2022-10-19T18:01:37.050Z,18.49
2022-10-19T18:04:05.019Z,18.44
2022-10-19T18:06:34.186Z,18.40
2022-10-19T18:09:05.471Z,18.36
2022-10-19T18:11:36.939Z,18.33
2022-10-19T18:14:05.567Z,18.32
2022-10-19T18:16:37.084Z,18.29
2022-10-19T18:19:05.398Z,18.28
2022-10-19T18:21:38.401Z,18.27
2022-10-19T18:24:09.111Z,18.27
2022-10-19T18:26:39.623Z,18.25
2022-10-19T18:29:12.612Z,18.23
2022-10-19T18:31:41.769Z,18.24
2022-10-19T18:34:13.914Z,18.18
2022-10-19T18:36:41.136Z,18.16
2022-10-19T18:39:08.168Z,18.12
2022-10-19T18:41:35.158Z,18.10
2022-10-19T18:44:05.225Z,18.09
2022-10-19T18:46:35.452Z,18.07
2022-10-19T18:49:08.106Z,18.05
2022-10-19T18:51:35.843Z,18.04
2022-10-19T18:54:03.272Z,18.04
2022-10-19T18:56:30.293Z,18.04
2022-10-19T18:58:57.392Z,18.04
2022-10-19T19:01:27.182Z,18.03
2022-10-19T19:03:57.063Z,18.02
2022-10-19T19:06:29.260Z,17.99
2022-10-19T19:08:58.135Z,17.95
2022-10-19T19:11:30.650Z,17.93
2022-10-19T19:14:02.708Z,17.92
2022-10-19T19:16:34.344Z,17.91
2022-10-19T19:19:01.837Z,17.92
2022-10-19T19:21:31.999Z,17.92
2022-10-19T19:24:01.403Z,17.92
2022-10-19T19:26:32.945Z,17.89
2022-10-19T19:29:01.079Z,17.88
2022-10-19T19:31:28.083Z,17.85
2022-10-19T19:33:55.275Z,17.85
2022-10-19T19:36:22.354Z,17.83
2022-10-19T19:38:53.679Z,17.84
2022-10-19T19:41:20.885Z,17.83
2022-10-19T19:43:47.836Z,17.84
2022-10-19T19:46:18.467Z,17.84
2022-10-19T19:48:48.147Z,17.84
2022-10-19T19:51:20.920Z,17.80
2022-10-19T19:53:49.712Z,17.79
2022-10-19T19:56:17.734Z,17.79
2022-10-19T19:58:45.710Z,17.76
2022-10-19T20:01:16.362Z,17.71
2022-10-19T20:03:45.046Z,17.67
2022-10-19T20:06:13.627Z,17.65
2022-10-19T20:08:41.278Z,17.60
2022-10-19T20:11:12.783Z,17.52
2022-10-19T20:13:40.159Z,17.45
2022-10-19T20:16:09.420Z,17.41
2022-10-19T20:18:36.435Z,17.37
2022-10-19T20:21:05.260Z,17.36
2022-10-19T20:23:32.442Z,17.35
2022-10-19T20:25:59.354Z,17.35
2022-10-19T20:28:28.289Z,17.35
2022-10-19T20:31:02.927Z,17.32
2022-10-19T20:33:30.866Z,17.28
2022-10-19T20:36:02.926Z,17.25
2022-10-19T20:38:29.944Z,17.23
2022-10-19T20:40:56.865Z,17.21
2022-10-19T20:43:23.863Z,17.19
2022-10-19T20:45:52.116Z,17.19
2022-10-19T20:48:19.067Z,17.19
2022-10-19T20:50:46.003Z,17.19
2022-10-19T20:53:12.936Z,17.18
2022-10-19T20:55:39.877Z,17.17
2022-10-19T20:58:06.830Z,17.18
2022-10-19T21:00:33.821Z,17.18
2022-10-19T21:03:02.131Z,17.17
2022-10-19T21:05:29.178Z,17.15
2022-10-19T21:07:56.195Z,17.14
2022-10-19T21:10:23.148Z,17.13
2022-10-19T21:12:50.094Z,17.15
2022-10-19T21:15:17.266Z,17.16
2022-10-19T21:17:44.189Z,17.15
2022-10-19T21:20:12.475Z,17.14
2022-10-19T21:22:41.347Z,17.10
2022-10-19T21:25:10.220Z,17.07
2022-10-19T21:27:37.552Z,17.04
2022-10-19T21:30:05.914Z,17.01
2022-10-19T21:32:32.970Z,17.00
2022-10-19T21:34:59.909Z,16.96
2022-10-19T21:37:29.253Z,16.93
2022-10-19T21:39:56.264Z,16.89
2022-10-19T21:42:23.196Z,16.85
2022-10-19T21:44:54.050Z,16.83
2022-10-19T21:47:27.994Z,16.80
2022-10-19T21:49:54.969Z,16.77
2022-10-19T21:52:21.895Z,16.75
2022-10-19T21:54:50.222Z,16.71
2022-10-19T21:57:17.278Z,16.68
2022-10-19T21:59:44.240Z,16.66
2022-10-19T22:02:11.262Z,16.64
2022-10-19T22:04:38.303Z,16.59
2022-10-19T22:07:05.282Z,16.55
2022-10-19T22:09:32.234Z,16.46
2022-10-19T22:12:00.638Z,16.39
2022-10-19T22:14:27.673Z,16.29
2022-10-19T22:16:54.630Z,16.23
2022-10-19T22:19:21.541Z,16.14
2022-10-19T22:21:48.503Z,16.10
2022-10-19T22:24:15.818Z,16.08
2022-10-19T22:26:45.531Z,16.05
2022-10-19T22:29:14.429Z,16.01
2022-10-19T22:31:41.895Z,15.99
2022-10-19T22:34:13.034Z,16.00
2022-10-19T22:36:40.346Z,15.99
2022-10-19T22:39:07.660Z,15.99
2022-10-19T22:41:34.592Z,15.97
2022-10-19T22:44:01.752Z,15.96
2022-10-19T22:46:30.010Z,15.91
2022-10-19T22:48:57.776Z,15.86
2022-10-19T22:51:24.885Z,15.83
2022-10-19T22:53:51.787Z,15.79
2022-10-19T22:56:18.684Z,15.75
2022-10-19T22:58:45.594Z,15.70
2022-10-19T23:01:15.408Z,15.65
2022-10-19T23:03:44.400Z,15.62
2022-10-19T23:06:15.003Z,15.61
2022-10-19T23:08:43.307Z,15.62
2022-10-19T23:11:10.976Z,15.61
2022-10-19T23:13:37.964Z,15.64
2022-10-19T23:16:06.280Z,15.65
2022-10-19T23:18:34.938Z,15.63
2022-10-19T23:21:06.084Z,15.63
2022-10-19T23:23:35.002Z,15.59
2022-10-19T23:26:05.665Z,15.57
2022-10-19T23:28:34.769Z,15.56
2022-10-19T23:31:05.432Z,15.55
2022-10-19T23:33:33.232Z,15.51
2022-10-19T23:36:08.240Z,15.45
2022-10-19T23:38:35.756Z,15.44
2022-10-19T23:41:03.098Z,15.43
2022-10-19T23:43:31.108Z,15.43
2022-10-19T23:45:58.126Z,15.45
2022-10-19T23:48:25.346Z,15.45
2022-10-19T23:51:01.004Z,15.41
2022-10-19T23:53:34.646Z,15.42
2022-10-19T23:56:07.017Z,15.41
2022-10-19T23:58:34.669Z,15.43
